Time;durP1;ratioP1;P1;durP2;ratioP2;P2;SDS_P1;SDS_P2;PMS_P1;PMS_P2;Temp;Humidity;BMP_temperature;BMP_pressure;BME280_temperature;BME280_humidity;BME280_pressure;Samples;Min_cycle;Max_cycle;Signal;HPM_P1;HPM_P2
2021/05/08 00:00:46;;;;;;;7.87;7.17;;;;;;;-0.36;100.00;98391.69;4980016;28;20244;-71
2021/05/08 00:03:13;;;;;;;7.23;6.60;;;;;;;-0.18;100.00;98383.81;4983647;28;20229;-67
2021/05/08 00:05:39;;;;;;;6.87;6.27;;;;;;;-0.24;100.00;98379.78;4983443;28;20231;-70
2021/05/08 00:08:06;;;;;;;7.33;6.70;;;;;;;-0.23;100.00;98383.19;4984241;28;20212;-70
2021/05/08 00:10:34;;;;;;;7.57;6.97;;;;;;;-0.33;100.00;98385.50;4983831;28;20241;-69
2021/05/08 00:13:01;;;;;;;7.20;6.60;;;;;;;-0.44;100.00;98384.31;4979507;28;20250;-70
2021/05/08 00:15:28;;;;;;;6.80;6.23;;;;;;;-0.39;100.00;98381.47;4983289;28;20213;-70
2021/05/08 00:17:55;;;;;;;7.17;6.67;;;;;;;-0.42;100.00;98379.03;4982446;28;20202;-70
2021/05/08 00:20:22;;;;;;;6.73;6.20;;;;;;;-0.45;100.00;98379.19;4981454;28;20225;-69
2021/05/08 00:22:50;;;;;;;7.67;7.07;;;;;;;-0.52;100.00;98385.69;4984453;28;20233;-68
2021/05/08 00:25:17;;;;;;;6.70;6.20;;;;;;;-0.56;100.00;98385.00;4983762;28;20216;-70
2021/05/08 00:27:45;;;;;;;7.37;6.67;;;;;;;-0.45;100.00;98387.00;4984013;28;20205;-69
2021/05/08 00:30:13;;;;;;;6.77;6.27;;;;;;;-0.65;100.00;98386.31;4982389;28;20240;-69
2021/05/08 00:32:40;;;;;;;7.43;6.83;;;;;;;-0.75;100.00;98390.34;4980404;28;20202;-69
2021/05/08 00:35:08;;;;;;;7.30;6.70;;;;;;;-0.80;100.00;98387.16;4983621;28;20216;-71
2021/05/08 00:37:35;;;;;;;7.90;6.47;;;;;;;-0.82;100.00;98382.03;4983649;28;20205;-68
2021/05/08 00:40:02;;;;;;;7.27;6.67;;;;;;;-0.88;100.00;98385.81;4983373;28;20226;-69
2021/05/08 00:42:29;;;;;;;7.53;6.93;;;;;;;-0.84;100.00;98388.25;4982810;28;20240;-69
2021/05/08 00:44:57;;;;;;;6.77;6.17;;;;;;;-0.84;100.00;98390.88;4983119;28;20241;-70
2021/05/08 00:47:24;;;;;;;7.57;7.07;;;;;;;-0.74;100.00;98390.28;4982447;28;20289;-69
2021/05/08 00:49:51;;;;;;;7.80;7.20;;;;;;;-0.73;100.00;98386.75;4982963;28;20612;-70
2021/05/08 00:52:19;;;;;;;7.13;6.53;;;;;;;-0.85;100.00;98382.19;4982395;28;20262;-70
2021/05/08 00:54:46;;;;;;;6.77;6.27;;;;;;;-0.92;100.00;98381.72;4983434;28;20256;-70
2021/05/08 00:57:13;;;;;;;7.63;7.03;;;;;;;-0.72;100.00;98384.97;4983148;28;20221;-69
2021/05/08 00:59:40;;;;;;;7.37;6.77;;;;;;;-0.91;100.00;98386.00;4980488;28;20226;-67
2021/05/08 01:02:08;;;;;;;6.97;6.47;;;;;;;-0.98;100.00;98383.78;4981481;28;20226;-69
2021/05/08 01:04:35;;;;;;;7.97;7.37;;;;;;;-0.99;100.00;98387.31;4982552;28;20283;-68
2021/05/08 01:07:02;;;;;;;7.17;6.67;;;;;;;-1.00;100.00;98391.66;4983322;28;20330;-71
2021/05/08 01:09:30;;;;;;;7.23;6.67;;;;;;;-0.89;100.00;98386.75;4980248;28;20217;-69
2021/05/08 01:11:57;;;;;;;7.20;6.60;;;;;;;-0.93;100.00;98380.03;4982580;28;20213;-70
2021/05/08 01:14:24;;;;;;;7.83;7.23;;;;;;;-1.10;100.00;98390.47;4982879;28;20210;-69
2021/05/08 01:16:51;;;;;;;7.43;6.73;;;;;;;-1.18;100.00;98385.66;4982985;28;20209;-69
2021/05/08 01:19:21;;;;;;;7.30;6.80;;;;;;;-1.09;100.00;98390.41;4982703;28;20214;-70
2021/05/08 01:21:48;;;;;;;7.60;6.90;;;;;;;-1.03;100.00;98391.81;4982847;28;20583;-70
2021/05/08 01:24:15;;;;;;;8.23;7.47;;;;;;;-1.20;100.00;98395.31;4985307;28;20205;-69
2021/05/08 01:26:43;;;;;;;7.73;7.03;;;;;;;-1.26;100.00;98399.09;4987521;28;20201;-70
2021/05/08 01:29:10;;;;;;;7.97;7.27;;;;;;;-1.30;100.00;98389.75;4986111;28;20220;-71
2021/05/08 01:31:37;;;;;;;7.63;7.03;;;;;;;-1.33;100.00;98395.09;4987372;28;20206;-70
2021/05/08 01:34:04;;;;;;;7.87;7.27;;;;;;;-1.25;100.00;98392.97;4985545;28;20205;-71
2021/05/08 01:36:32;;;;;;;7.97;7.27;;;;;;;-1.34;100.00;98398.63;4987129;28;20560;-69
2021/05/08 01:39:00;;;;;;;7.47;6.87;;;;;;;-1.33;100.00;98397.69;4983822;28;20585;-70
2021/05/08 01:41:27;;;;;;;7.57;6.80;;;;;;;-1.31;100.00;98401.09;4986451;28;20232;-70
2021/05/08 01:43:54;;;;;;;8.03;7.43;;;;;;;-1.38;100.00;98397.09;4986890;28;20672;-70
2021/05/08 01:46:21;;;;;;;7.53;6.83;;;;;;;-1.27;100.00;98393.94;4986162;28;20589;-71
2021/05/08 01:48:48;;;;;;;8.33;7.63;;;;;;;-1.23;100.00;98396.31;4986294;28;20692;-70
2021/05/08 01:51:16;;;;;;;8.63;7.83;;;;;;;-1.17;100.00;98392.53;4986603;28;20231;-68
2021/05/08 01:53:43;;;;;;;7.30;6.70;;;;;;;-1.26;100.00;98398.22;4986425;28;20296;-70
2021/05/08 01:56:11;;;;;;;7.60;7.00;;;;;;;-1.34;100.00;98406.41;4986364;28;20265;-69
2021/05/08 01:58:38;;;;;;;7.30;6.70;;;;;;;-1.38;100.00;98399.69;4986054;28;20212;-72
2021/05/08 02:01:05;;;;;;;8.00;7.40;;;;;;;-1.26;100.00;98401.69;4986317;28;20237;-69
2021/05/08 02:03:32;;;;;;;7.63;7.13;;;;;;;-1.35;100.00;98396.94;4986262;28;20233;-69
2021/05/08 02:05:59;;;;;;;7.43;6.83;;;;;;;-1.40;100.00;98396.34;4985850;28;20205;-69
2021/05/08 02:08:26;;;;;;;7.53;6.93;;;;;;;-1.45;100.00;98399.19;4986047;28;20556;-68
2021/05/08 02:10:53;;;;;;;8.07;7.27;;;;;;;-1.38;100.00;98403.16;4985771;28;20370;-72
2021/05/08 02:13:21;;;;;;;8.17;7.47;;;;;;;-1.55;100.00;98404.00;4986120;28;20236;-68
2021/05/08 02:15:48;;;;;;;7.80;7.30;;;;;;;-1.41;100.00;98394.66;4985881;28;20202;-69
2021/05/08 02:18:16;;;;;;;7.73;6.90;;;;;;;-1.36;100.00;98397.84;4986817;28;20457;-69
2021/05/08 02:20:44;;;;;;;7.93;7.30;;;;;;;-1.33;100.00;98390.75;4984717;28;20259;-69
2021/05/08 02:23:12;;;;;;;7.83;7.13;;;;;;;-1.30;100.00;98384.56;4986687;28;20229;-70
2021/05/08 02:25:40;;;;;;;7.37;6.77;;;;;;;-1.43;100.00;98383.50;4983800;28;20224;-70
2021/05/08 02:28:08;;;;;;;7.97;7.37;;;;;;;-1.57;100.00;98389.41;4986517;28;20634;-66
2021/05/08 02:30:37;;;;;;;8.40;7.60;;;;;;;-1.61;100.00;98388.72;4983017;28;20316;-70
2021/05/08 02:33:04;;;;;;;8.17;7.47;;;;;;;-1.58;100.00;98393.78;4984442;28;20221;-68
2021/05/08 02:35:32;;;;;;;8.87;8.07;;;;;;;-1.66;100.00;98388.94;4984605;28;20209;-70
2021/05/08 02:38:00;;;;;;;8.33;7.50;;;;;;;-1.70;100.00;98377.03;4982119;28;20669;-69
2021/05/08 02:40:28;;;;;;;7.97;7.37;;;;;;;-1.78;100.00;98380.00;4985868;28;20248;-69
2021/05/08 02:42:56;;;;;;;7.77;7.07;;;;;;;-1.82;100.00;98375.06;4983715;28;20821;-70
2021/05/08 02:45:23;;;;;;;7.60;7.10;;;;;;;-1.76;100.00;98378.16;4985858;28;20213;-70
2021/05/08 02:47:51;;;;;;;8.57;7.77;;;;;;;-1.85;100.00;98370.84;4985780;28;20252;-72
2021/05/08 02:50:19;;;;;;;8.80;8.10;;;;;;;-1.90;100.00;98372.81;4983560;28;20229;-71
2021/05/08 02:52:51;;;;;;;9.20;8.40;;;;;;;-1.89;100.00;98371.91;4985551;28;20206;-71
2021/05/08 02:55:18;;;;;;;9.80;8.83;;;;;;;-1.95;100.00;98373.03;4984432;28;20210;-70
2021/05/08 02:57:46;;;;;;;8.73;8.03;;;;;;;-1.87;100.00;98364.88;4985504;28;20594;-70
2021/05/08 03:00:14;;;;;;;8.83;8.13;;;;;;;-1.72;100.00;98367.63;4984394;28;20323;-67
2021/05/08 03:02:42;;;;;;;8.70;8.00;;;;;;;-1.78;100.00;98364.41;4981294;28;20237;-69
2021/05/08 03:05:11;;;;;;;8.53;7.73;;;;;;;-1.75;100.00;98368.63;4983013;28;20198;-69
2021/05/08 03:07:38;;;;;;;7.77;7.07;;;;;;;-1.85;100.00;98363.03;4985102;28;20497;-69
2021/05/08 03:10:07;;;;;;;9.27;8.47;;;;;;;-1.79;100.00;98360.13;4983677;28;20589;-69
2021/05/08 03:12:34;;;;;;;8.70;7.97;;;;;;;-1.87;100.00;98364.06;4983842;28;20222;-70
2021/05/08 03:15:01;;;;;;;9.23;8.33;;;;;;;-1.78;100.00;98364.41;4983173;28;20581;-67
2021/05/08 03:17:29;;;;;;;8.90;8.20;;;;;;;-1.89;100.00;98358.91;4982186;28;20221;-70
2021/05/08 03:19:58;;;;;;;9.17;8.33;;;;;;;-1.93;100.00;98355.63;4981927;28;20712;-69
2021/05/08 03:22:26;;;;;;;9.60;8.33;;;;;;;-1.87;100.00;98359.69;4982771;28;20286;-70
2021/05/08 03:24:55;;;;;;;9.17;8.27;;;;;;;-1.95;100.00;98367.03;4982093;28;20233;-70
2021/05/08 03:27:22;;;;;;;9.33;8.53;;;;;;;-1.94;100.00;98359.13;4983567;28;20216;-69
2021/05/08 03:29:49;;;;;;;9.03;8.33;;;;;;;-2.08;100.00;98357.25;4983927;28;20568;-70
2021/05/08 03:32:16;;;;;;;9.03;8.23;;;;;;;-1.92;100.00;98362.50;4984271;28;20219;-70
2021/05/08 03:34:43;;;;;;;8.87;8.07;;;;;;;-1.96;100.00;98357.56;4983205;28;20218;-70
2021/05/08 03:37:11;;;;;;;8.87;8.07;;;;;;;-2.03;100.00;98354.41;4981105;28;20478;-70
2021/05/08 03:39:38;;;;;;;8.93;7.63;;;;;;;-2.00;100.00;98359.44;4981900;28;20339;-69
2021/05/08 03:42:06;;;;;;;9.53;8.53;;;;;;;-1.93;100.00;98357.41;4983817;28;20225;-68
2021/05/08 03:44:33;;;;;;;9.13;8.20;;;;;;;-1.99;100.00;98355.09;4983404;28;20685;-72
2021/05/08 03:47:00;;;;;;;9.33;8.43;;;;;;;-1.93;100.00;98368.63;4982643;28;20263;-69
2021/05/08 03:49:27;;;;;;;8.53;7.87;;;;;;;-1.88;100.00;98376.19;4983758;28;20205;-69
2021/05/08 03:51:59;;;;;;;9.40;8.50;;;;;;;-1.84;100.00;98371.69;4983991;28;20210;-70
2021/05/08 03:54:26;;;;;;;8.93;8.23;;;;;;;-1.56;100.00;98368.53;4982058;28;20585;-68
2021/05/08 03:56:55;;;;;;;8.93;8.20;;;;;;;-1.57;100.00;98374.66;4983964;28;20206;-74
2021/05/08 03:59:22;;;;;;;8.87;8.07;;;;;;;-1.61;100.00;98379.16;4983283;28;20210;-67
2021/05/08 04:01:49;;;;;;;8.60;7.80;;;;;;;-1.66;100.00;98381.16;4984112;28;20221;-71
2021/05/08 04:04:16;;;;;;;8.70;8.07;;;;;;;-1.68;100.00;98379.56;4983822;28;20230;-71
2021/05/08 04:06:43;;;;;;;8.57;7.97;;;;;;;-1.70;100.00;98379.63;4983307;28;20217;-72
2021/05/08 04:09:10;;;;;;;8.33;7.63;;;;;;;-1.53;100.00;98380.53;4983438;28;20214;-68
2021/05/08 04:11:38;;;;;;;8.60;7.90;;;;;;;-1.57;100.00;98372.06;4977796;28;20218;-71
2021/05/08 04:14:06;;;;;;;8.13;7.43;;;;;;;-1.57;100.00;98373.81;4983100;28;20210;-71
2021/05/08 04:16:33;;;;;;;9.23;8.43;;;;;;;-1.42;100.00;98378.22;4983881;28;20206;-71
2021/05/08 04:19:01;;;;;;;7.87;7.17;;;;;;;-1.37;100.00;98377.97;4984915;28;20288;-69
2021/05/08 04:21:28;;;;;;;8.60;7.90;;;;;;;-1.38;100.00;98386.69;4981054;28;20225;-66
2021/05/08 04:23:55;;;;;;;9.07;8.37;;;;;;;-1.28;100.00;98374.06;4983005;28;20225;-67
2021/05/08 04:26:23;;;;;;;8.13;7.53;;;;;;;-1.22;100.00;98382.41;4983061;28;20209;-71
2021/05/08 04:28:50;;;;;;;8.00;7.30;;;;;;;-1.19;100.00;98371.84;4982814;28;20216;-71
2021/05/08 04:31:18;;;;;;;8.93;8.03;;;;;;;-1.16;100.00;98381.22;4983643;28;20662;-69
2021/05/08 04:33:45;;;;;;;9.30;8.50;;;;;;;-1.09;100.00;98377.41;4983832;28;20208;-68
2021/05/08 04:36:12;;;;;;;8.37;7.73;;;;;;;-1.10;100.00;98374.88;4982236;28;20209;-69
2021/05/08 04:38:39;;;;;;;7.57;6.97;;;;;;;-0.99;100.00;98375.13;4982351;28;20206;-67
2021/05/08 04:41:06;;;;;;;7.63;7.10;;;;;;;-0.86;100.00;98369.28;4982943;28;20676;-70
2021/05/08 04:43:33;;;;;;;8.27;7.67;;;;;;;-0.83;100.00;98375.16;4984194;28;20252;-69
2021/05/08 04:46:01;;;;;;;8.10;7.07;;;;;;;-0.83;100.00;98376.94;4982783;28;20210;-67
2021/05/08 04:48:32;;;;;;;8.00;7.40;;;;;;;-0.71;100.00;98381.47;4983896;28;20205;-68
2021/05/08 04:50:59;;;;;;;8.27;7.57;;;;;;;-0.69;100.00;98377.00;4982810;28;20232;-70
2021/05/08 04:53:26;;;;;;;8.27;7.60;;;;;;;-0.61;100.00;98376.59;4981841;28;20209;-67
2021/05/08 04:55:53;;;;;;;7.77;7.10;;;;;;;-0.49;100.00;98378.53;4982925;28;20209;-69
2021/05/08 04:58:20;;;;;;;7.93;7.33;;;;;;;-0.46;100.00;98385.34;4981930;28;20468;-67
2021/05/08 05:00:47;;;;;;;7.77;7.17;;;;;;;-0.26;100.00;98388.56;4981330;28;20510;-67
2021/05/08 05:03:14;;;;;;;8.00;7.40;;;;;;;-0.21;100.00;98391.75;4980963;28;20323;-68
2021/05/08 05:05:42;;;;;;;8.43;7.63;;;;;;;-0.17;100.00;98395.91;4979135;28;20205;-67
2021/05/08 05:08:09;;;;;;;8.30;7.60;;;;;;;-0.03;100.00;98393.34;4982282;28;20586;-66
2021/05/08 05:10:36;;;;;;;9.13;8.43;;;;;;;0.14;100.00;98396.75;4980558;28;20637;-68
2021/05/08 05:13:03;;;;;;;8.40;7.70;;;;;;;0.21;100.00;98394.63;4982015;28;20213;-67
2021/05/08 05:15:30;;;;;;;7.40;6.80;;;;;;;0.47;100.00;98389.69;4982040;28;20210;-69
2021/05/08 05:17:57;;;;;;;7.70;7.10;;;;;;;0.66;100.00;98395.47;4981708;28;20937;-71
2021/05/08 05:20:24;;;;;;;8.40;7.70;;;;;;;0.75;100.00;98401.91;4979407;28;20469;-70
2021/05/08 05:22:53;;;;;;;7.83;7.17;;;;;;;0.79;100.00;98397.34;4981735;28;20244;-68
2021/05/08 05:25:20;;;;;;;7.53;7.00;;;;;;;0.97;97.12;98390.19;4980987;28;20212;-69
2021/05/08 05:27:47;;;;;;;7.03;6.43;;;;;;;1.03;96.86;98395.03;4981862;28;20213;-70
2021/05/08 05:30:15;;;;;;;7.50;6.90;;;;;;;1.21;96.71;98387.84;4982792;28;20233;-69
2021/05/08 05:32:41;;;;;;;7.00;6.50;;;;;;;1.14;96.35;98384.75;4979565;28;20219;-70
2021/05/08 05:35:09;;;;;;;7.07;6.57;;;;;;;1.46;95.21;98388.06;4981248;28;20279;-69
2021/05/08 05:37:36;;;;;;;6.80;6.30;;;;;;;1.58;94.10;98393.38;4982922;28;20206;-70
2021/05/08 05:40:05;;;;;;;8.10;6.80;;;;;;;1.65;94.02;98388.56;4982493;28;20237;-70
2021/05/08 05:42:32;;;;;;;7.10;6.57;;;;;;;1.77;95.27;98389.56;4981692;28;20213;-70
2021/05/08 05:44:59;;;;;;;6.80;6.30;;;;;;;2.00;92.24;98393.31;4983096;28;20213;-69
2021/05/08 05:47:28;;;;;;;7.43;6.50;;;;;;;2.12;91.72;98396.91;4982756;28;20207;-69
2021/05/08 05:49:57;;;;;;;6.33;5.70;;;;;;;2.10;89.16;98390.13;4982519;28;20225;-70
2021/05/08 05:52:24;;;;;;;7.17;6.60;;;;;;;2.25;88.31;98386.47;4978078;28;20548;-69
2021/05/08 05:54:52;;;;;;;7.10;6.60;;;;;;;2.41;90.79;98394.13;4980940;28;20666;-69
2021/05/08 05:57:20;;;;;;;7.20;6.60;;;;;;;2.65;87.91;98389.97;4982848;28;20217;-70
2021/05/08 05:59:52;;;;;;;7.13;6.63;;;;;;;2.85;86.91;98388.63;4982110;28;20225;-70
2021/05/08 06:02:19;;;;;;;6.77;6.27;;;;;;;3.07;84.03;98381.91;4980642;28;20244;-70
2021/05/08 06:04:46;;;;;;;7.60;7.00;;;;;;;3.12;84.17;98385.03;4982277;28;20225;-69
2021/05/08 06:07:13;;;;;;;6.60;6.10;;;;;;;3.07;84.61;98377.50;4982628;28;20213;-70
2021/05/08 06:09:40;;;;;;;6.27;5.77;;;;;;;3.32;84.55;98381.03;4982425;28;20296;-70
2021/05/08 06:12:07;;;;;;;7.23;6.53;;;;;;;3.45;82.38;98384.44;4981951;28;20206;-70
2021/05/08 06:14:35;;;;;;;7.03;6.53;;;;;;;3.74;80.41;98385.91;4985776;28;20205;-73
2021/05/08 06:17:02;;;;;;;8.00;7.30;;;;;;;3.80;80.64;98388.09;4985043;28;20202;-69
2021/05/08 06:19:29;;;;;;;6.73;6.23;;;;;;;3.88;80.98;98379.66;4985027;28;20315;-71
2021/05/08 06:21:56;;;;;;;6.97;6.37;;;;;;;3.94;79.78;98381.84;4983565;28;20202;-69
2021/05/08 06:24:23;;;;;;;6.50;6.10;;;;;;;4.23;77.67;98385.91;4985517;28;20367;-72
2021/05/08 06:26:50;;;;;;;7.23;6.73;;;;;;;4.38;77.29;98381.31;4986082;28;20275;-69
2021/05/08 06:29:17;;;;;;;6.37;5.87;;;;;;;4.64;76.79;98374.06;4983048;28;20212;-70
2021/05/08 06:31:45;;;;;;;6.33;5.83;;;;;;;4.75;75.93;98376.72;4984594;28;20210;-70
2021/05/08 06:34:12;;;;;;;6.07;5.67;;;;;;;4.89;74.64;98366.91;4984700;28;20268;-71
2021/05/08 06:36:39;;;;;;;6.97;6.47;;;;;;;5.03;73.51;98368.47;4985393;28;20214;-72
2021/05/08 06:39:06;;;;;;;6.40;6.00;;;;;;;5.14;74.83;98359.78;4984481;28;20213;-72
2021/05/08 06:41:33;;;;;;;6.67;6.07;;;;;;;5.34;72.60;98364.31;4983160;28;20259;-70
2021/05/08 06:44:00;;;;;;;6.10;5.70;;;;;;;5.46;71.69;98361.66;4984915;28;20221;-69
2021/05/08 06:46:27;;;;;;;5.87;5.47;;;;;;;5.66;71.36;98360.06;4982826;28;20680;-70
2021/05/08 06:48:55;;;;;;;7.10;6.40;;;;;;;5.97;69.60;98362.81;4985385;28;20214;-70
2021/05/08 06:51:22;;;;;;;6.47;5.97;;;;;;;6.05;69.80;98359.56;4984212;28;20234;-69
2021/05/08 06:53:50;;;;;;;6.03;5.63;;;;;;;6.17;68.20;98358.59;4983991;28;20205;-70
2021/05/08 06:56:17;;;;;;;5.20;4.90;;;;;;;6.41;66.00;98359.28;4984319;28;20225;-69
2021/05/08 06:58:44;;;;;;;5.43;5.10;;;;;;;6.45;66.31;98358.06;4985759;28;20209;-68
2021/05/08 07:01:10;;;;;;;4.70;4.43;;;;;;;6.61;66.21;98357.63;4984882;28;20254;-69
2021/05/08 07:03:37;;;;;;;5.57;5.17;;;;;;;6.76;64.96;98356.31;4984409;28;20229;-69
2021/05/08 07:06:05;;;;;;;5.10;4.63;;;;;;;7.04;63.19;98348.66;4984752;28;20393;-69
2021/05/08 07:08:32;;;;;;;5.13;4.80;;;;;;;7.05;61.56;98345.06;4982707;28;20630;-70
2021/05/08 07:10:59;;;;;;;4.70;4.40;;;;;;;7.13;61.43;98341.78;4979904;28;20231;-69
2021/05/08 07:13:26;;;;;;;4.93;4.63;;;;;;;7.22;60.07;98334.88;4984200;28;20209;-69
2021/05/08 07:15:54;;;;;;;4.90;4.40;;;;;;;7.48;60.69;98347.56;4982913;28;20221;-70
2021/05/08 07:18:21;;;;;;;4.93;4.57;;;;;;;7.56;59.37;98341.59;4981697;28;20382;-69
2021/05/08 07:20:48;;;;;;;4.30;4.10;;;;;;;7.83;57.63;98340.94;4980560;28;20233;-70
2021/05/08 07:23:17;;;;;;;4.70;4.40;;;;;;;7.91;57.87;98342.91;4984425;28;20235;-70
2021/05/08 07:25:44;;;;;;;4.23;3.93;;;;;;;8.09;56.16;98343.03;4984430;28;20609;-71
2021/05/08 07:28:12;;;;;;;4.20;3.90;;;;;;;8.40;56.18;98335.78;4984885;28;20217;-68
2021/05/08 07:30:40;;;;;;;4.33;3.93;;;;;;;8.60;54.97;98340.22;4980504;28;20327;-68
2021/05/08 07:33:07;;;;;;;4.27;3.80;;;;;;;8.77;54.45;98344.78;4981469;28;20216;-70
2021/05/08 07:35:34;;;;;;;3.87;3.60;;;;;;;8.94;52.83;98335.25;4984241;28;20202;-71
2021/05/08 07:38:01;;;;;;;3.80;3.40;;;;;;;9.05;51.85;98341.31;4983588;28;20220;-72
2021/05/08 07:40:31;;;;;;;3.80;3.50;;;;;;;9.02;52.47;98337.16;4983828;28;20249;-68
2021/05/08 07:42:58;;;;;;;4.37;4.00;;;;;;;9.24;51.41;98335.13;4983926;28;20285;-72
2021/05/08 07:45:25;;;;;;;3.83;3.60;;;;;;;9.53;53.00;98332.28;4983160;28;20653;-72
2021/05/08 07:47:52;;;;;;;4.43;4.03;;;;;;;9.38;52.54;98339.09;4983944;28;20209;-71
2021/05/08 07:50:19;;;;;;;3.70;3.40;;;;;;;9.63;52.58;98334.03;4981456;28;20233;-70
2021/05/08 07:52:47;;;;;;;3.33;3.07;;;;;;;9.77;51.91;98330.91;4984161;28;20205;-67
2021/05/08 07:55:14;;;;;;;4.40;4.10;;;;;;;10.01;51.87;98331.28;4984524;28;20316;-68
2021/05/08 07:57:42;;;;;;;4.67;4.10;;;;;;;9.99;51.27;98320.81;4983504;28;20578;-69
2021/05/08 08:00:11;;;;;;;4.47;3.33;;;;;;;10.28;51.79;98323.22;4982194;28;20228;-67
2021/05/08 08:02:38;;;;;;;4.10;3.70;;;;;;;10.31;49.74;98331.84;4982066;28;20205;-71
2021/05/08 08:05:07;;;;;;;4.50;4.10;;;;;;;10.32;50.10;98326.38;4983814;28;20225;-68
2021/05/08 08:07:34;;;;;;;3.20;3.03;;;;;;;10.44;49.50;98320.88;4982349;28;20210;-72
2021/05/08 08:10:01;;;;;;;3.53;3.33;;;;;;;10.61;49.46;98327.13;4980808;28;20815;-69
2021/05/08 08:12:28;;;;;;;4.30;4.00;;;;;;;10.69;48.32;98328.00;4983777;28;20205;-70
2021/05/08 08:14:56;;;;;;;3.70;3.50;;;;;;;10.90;47.82;98331.25;4984450;28;20460;-69
2021/05/08 08:17:23;;;;;;;3.57;3.37;;;;;;;10.77;46.33;98326.38;4983940;28;20213;-70
2021/05/08 08:19:50;;;;;;;3.50;3.30;;;;;;;10.53;47.21;98328.72;4983477;28;20240;-69
2021/05/08 08:22:18;;;;;;;39.13;7.97;;;;;;;10.64;47.77;98329.47;4983129;28;20347;-71
2021/05/08 08:24:45;;;;;;;3.93;3.63;;;;;;;10.97;48.10;98321.66;4983599;28;20676;-69
2021/05/08 08:27:13;;;;;;;5.90;3.80;;;;;;;10.90;46.92;98323.28;4983426;28;20241;-69
2021/05/08 08:29:40;;;;;;;3.63;3.43;;;;;;;11.23;46.34;98320.78;4983496;28;20717;-70
2021/05/08 08:32:08;;;;;;;3.80;3.50;;;;;;;11.39;45.21;98323.53;4981526;28;20206;-70
2021/05/08 08:34:36;;;;;;;3.93;3.63;;;;;;;11.27;46.33;98320.31;4979077;28;20209;-67
2021/05/08 08:37:04;;;;;;;4.97;3.40;;;;;;;11.51;46.20;98321.38;4982267;28;20601;-67
2021/05/08 08:39:31;;;;;;;3.90;3.60;;;;;;;11.43;43.82;98330.16;4982753;28;20229;-69
2021/05/08 08:41:58;;;;;;;3.40;3.10;;;;;;;11.50;42.45;98324.19;4979258;28;20212;-70
2021/05/08 08:44:25;;;;;;;3.90;3.10;;;;;;;11.66;42.71;98318.91;4981039;28;20414;-72
2021/05/08 08:46:53;;;;;;;2.93;2.83;;;;;;;11.44;42.92;98299.13;4982994;28;20213;-70
2021/05/08 08:49:21;;;;;;;2.90;2.70;;;;;;;11.48;43.52;98310.25;4982354;28;20229;-70
2021/05/08 08:51:48;;;;;;;5.20;3.20;;;;;;;11.70;43.91;98308.81;4983530;28;20208;-69
2021/05/08 08:54:17;;;;;;;4.40;3.53;;;;;;;11.73;43.25;98298.69;4982458;28;20580;-67
2021/05/08 08:56:45;;;;;;;3.13;2.93;;;;;;;11.88;43.35;98308.69;4980845;28;20213;-68
2021/05/08 08:59:17;;;;;;;3.40;3.20;;;;;;;11.73;42.03;98308.50;4982070;28;20236;-70
2021/05/08 09:01:46;;;;;;;2.20;2.10;;;;;;;11.63;41.58;98302.50;4982068;28;20221;-70
2021/05/08 09:04:14;;;;;;;4.30;3.13;;;;;;;11.67;39.99;98296.69;4982529;28;20281;-70
2021/05/08 09:06:43;;;;;;;2.50;2.30;;;;;;;11.67;39.51;98303.84;4982836;28;20205;-72
2021/05/08 09:09:10;;;;;;;3.97;2.53;;;;;;;11.54;39.10;98302.47;4981133;28;20205;-69
2021/05/08 09:11:48;;;;;;;5.00;2.57;;;;;;;11.53;40.07;98297.34;4981606;28;20342;-71
2021/05/08 09:14:20;;;;;;;2.53;2.33;;;;;;;11.46;39.66;98289.19;4981848;28;20216;-69
2021/05/08 09:17:05;;;;;;;2.70;2.50;;;;;;;11.62;40.34;98292.88;4983210;28;20214;-70
2021/05/08 09:19:34;;;;;;;2.93;2.73;;;;;;;11.94;39.65;98289.41;4982258;28;20233;-67
2021/05/08 09:22:24;;;;;;;2.80;2.53;;;;;;;12.28;40.16;98290.25;4983222;28;20588;-69
2021/05/08 09:24:58;;;;;;;3.67;2.50;;;;;;;12.14;38.52;98289.94;4981051;28;20261;-67
2021/05/08 09:27:52;;;;;;;2.83;2.70;;;;;;;12.23;38.78;98285.47;4981658;28;20206;-69
2021/05/08 09:30:22;;;;;;;2.80;2.60;;;;;;;12.53;38.97;98283.09;4978354;28;20312;-71
2021/05/08 09:32:58;;;;;;;2.70;2.50;;;;;;;13.18;37.76;98281.19;4982808;28;20259;-74
2021/05/08 09:35:27;;;;;;;3.00;2.23;;;;;;;13.66;37.44;98282.13;4979670;28;20237;-70
2021/05/08 09:38:08;;;;;;;2.40;2.30;;;;;;;13.95;35.53;98278.75;4980937;28;21639;-70
2021/05/08 09:40:40;;;;;;;2.73;2.53;;;;;;;13.93;35.55;98279.94;4979415;28;20232;-68
2021/05/08 09:43:09;;;;;;;2.57;2.37;;;;;;;13.95;35.56;98272.59;4981017;28;20202;-72
2021/05/08 09:45:38;;;;;;;3.40;2.70;;;;;;;13.80;35.16;98270.69;4984559;28;20769;-69
2021/05/08 09:48:18;;;;;;;2.23;2.13;;;;;;;13.16;36.73;98277.06;4985983;28;20209;-70
2021/05/08 09:51:17;;;;;;;3.10;2.80;;;;;;;12.53;37.41;98266.31;4982634;28;20230;-71
2021/05/08 09:53:45;;;;;;;2.77;2.47;;;;;;;12.67;36.76;98281.53;4986215;28;20207;-70
2021/05/08 09:56:35;;;;;;;2.50;2.40;;;;;;;12.87;37.24;98270.53;4986837;28;20212;-70
2021/05/08 09:59:20;;;;;;;3.03;2.83;;;;;;;13.00;36.57;98259.34;4986687;28;20235;-71
2021/05/08 10:01:47;;;;;;;3.23;2.40;;;;;;;13.35;36.34;98249.19;4982647;28;20220;-73
2021/05/08 10:04:26;;;;;;;2.70;2.53;;;;;;;13.33;34.96;98248.53;4983003;28;20237;-70
2021/05/08 10:07:09;;;;;;;3.40;3.00;;;;;;;13.76;34.46;98258.75;4986195;28;20593;-71
2021/05/08 10:09:38;;;;;;;2.53;2.33;;;;;;;14.07;35.39;98247.19;4982839;28;20229;-70
2021/05/08 10:12:06;;;;;;;3.97;2.60;;;;;;;13.97;35.55;98250.09;4984952;28;20201;-71
2021/05/08 10:14:34;;;;;;;3.50;2.87;;;;;;;14.13;34.58;98251.78;4984912;28;20213;-71
2021/05/08 10:17:15;;;;;;;2.50;2.40;;;;;;;14.27;35.78;98250.16;4984437;28;20296;-70
2021/05/08 10:19:45;;;;;;;2.47;2.33;;;;;;;14.67;34.29;98244.59;4984538;28;20229;-71
2021/05/08 10:22:13;;;;;;;2.20;2.00;;;;;;;14.75;34.75;98239.19;4982461;28;20209;-70
2021/05/08 10:24:42;;;;;;;2.20;2.10;;;;;;;14.85;33.72;98241.59;4983447;28;20316;-68
2021/05/08 10:27:09;;;;;;;2.80;2.60;;;;;;;14.23;34.11;98242.72;4984101;28;20209;-71
2021/05/08 10:29:38;;;;;;;2.40;2.30;;;;;;;14.62;33.36;98241.66;4983084;28;21018;-70
2021/05/08 10:32:06;;;;;;;2.40;2.20;;;;;;;15.20;32.63;98240.97;4983677;28;20210;-70
2021/05/08 10:34:34;;;;;;;2.10;2.00;;;;;;;15.74;31.67;98234.31;4984993;28;20216;-73
2021/05/08 10:37:06;;;;;;;2.37;2.27;;;;;;;15.28;33.62;98227.50;4984531;28;20586;-69
2021/05/08 10:39:51;;;;;;;2.80;2.50;;;;;;;15.77;32.01;98222.44;4984721;28;20221;-72
2021/05/08 10:42:35;;;;;;;2.17;1.87;;;;;;;16.66;33.38;98224.72;4984683;28;20709;-71
2021/05/08 10:45:03;;;;;;;2.10;2.00;;;;;;;17.05;31.41;98221.44;4981425;28;20225;-69
2021/05/08 10:48:08;;;;;;;2.30;2.10;;;;;;;17.16;31.81;98224.56;4985753;28;20202;-71
2021/05/08 10:50:46;;;;;;;2.33;2.23;;;;;;;17.84;28.95;98218.31;4983358;28;20224;-70
2021/05/08 10:53:16;;;;;;;2.63;2.20;;;;;;;17.03;30.61;98217.28;4985233;28;20209;-70
2021/05/08 10:55:52;;;;;;;3.00;2.13;;;;;;;16.22;31.45;98213.34;4983507;28;20206;-71
2021/05/08 10:58:40;;;;;;;2.10;2.00;;;;;;;16.14;31.95;98215.16;4984053;28;20940;-73
2021/05/08 11:01:09;;;;;;;2.60;2.40;;;;;;;16.93;30.81;98210.44;4977007;28;20815;-70
2021/05/08 11:04:01;;;;;;;4.37;3.03;;;;;;;16.94;30.15;98200.56;4990211;28;20206;-70
2021/05/08 11:06:28;;;;;;;2.10;2.00;;;;;;;17.16;30.08;98195.09;5002531;28;20297;-67
2021/05/08 11:08:55;;;;;;;2.63;2.33;;;;;;;17.74;29.92;98189.22;5002520;28;20215;-71
2021/05/08 11:11:25;;;;;;;2.47;2.27;;;;;;;17.82;29.42;98195.44;5003103;28;20231;-72
2021/05/08 11:13:59;;;;;;;2.80;2.37;;;;;;;16.96;31.47;98179.78;5003782;28;20691;-71
2021/05/08 11:16:27;;;;;;;2.10;2.00;;;;;;;16.78;31.27;98181.16;5003687;28;20215;-73
2021/05/08 11:18:55;;;;;;;2.30;2.20;;;;;;;17.01;30.48;98174.69;5003870;28;20639;-71
2021/05/08 11:21:39;;;;;;;4.13;2.07;;;;;;;17.34;30.77;98173.94;5003448;28;20228;-70
2021/05/08 11:24:09;;;;;;;2.57;2.43;;;;;;;16.61;31.08;98161.94;5000915;28;20261;-70
2021/05/08 11:26:39;;;;;;;2.43;2.23;;;;;;;16.33;32.46;98170.88;5002347;28;20208;-69
2021/05/08 11:29:09;;;;;;;3.87;2.40;;;;;;;16.35;30.25;98157.28;5002481;28;20528;-68
2021/05/08 11:31:37;;;;;;;2.00;1.90;;;;;;;16.09;31.66;98163.28;4999291;28;20752;-71
2021/05/08 11:34:12;;;;;;;1.80;1.70;;;;;;;16.70;31.52;98157.25;5002495;28;20220;-69
2021/05/08 11:36:44;;;;;;;2.17;2.00;;;;;;;17.09;30.31;98146.91;5002321;28;20227;-72
2021/05/08 11:39:12;;;;;;;2.20;2.10;;;;;;;17.04;28.61;98163.56;5002654;28;20218;-70